createdAt,value
2022-09-25T00:01:51.175Z,0.56
2022-09-25T00:04:20.190Z,0.50
2022-09-25T00:06:46.954Z,0.46
2022-09-25T00:09:16.391Z,0.49
2022-09-25T00:11:43.246Z,0.46
2022-09-25T00:14:10.050Z,0.62
2022-09-25T00:16:38.773Z,0.59
2022-09-25T00:19:06.089Z,0.59
2022-09-25T00:21:34.950Z,0.50
2022-09-25T00:24:04.776Z,0.47
2022-09-25T00:26:34.741Z,0.50
2022-09-25T00:29:01.612Z,0.45
2022-09-25T00:31:30.879Z,0.43
2022-09-25T00:34:01.541Z,0.47
2022-09-25T00:36:29.162Z,0.44
2022-09-25T00:38:56.302Z,0.42
2022-09-25T00:41:25.152Z,0.44
2022-09-25T00:43:56.860Z,0.42
2022-09-25T00:46:30.367Z,0.42
2022-09-25T00:49:03.252Z,0.50
2022-09-25T00:51:36.898Z,0.50
2022-09-25T00:54:06.186Z,0.51
2022-09-25T00:56:37.862Z,0.57
2022-09-25T00:59:08.223Z,0.65
2022-09-25T01:01:35.305Z,0.71
2022-09-25T01:04:06.826Z,1.09
2022-09-25T01:06:35.152Z,0.91
2022-09-25T01:09:03.654Z,0.81
2022-09-25T01:11:30.464Z,0.67
2022-09-25T01:14:06.583Z,0.74
2022-09-25T01:16:42.523Z,0.82
2022-09-25T01:19:30.193Z,0.75
2022-09-25T01:22:05.889Z,0.87
2022-09-25T01:24:44.518Z,0.98
2022-09-25T01:27:50.835Z,0.88
2022-09-25T01:30:21.732Z,1.16
2022-09-25T01:32:57.136Z,1.26
2022-09-25T01:35:35.285Z,1.18
2022-09-25T01:38:10.554Z,1.02
2022-09-25T01:40:45.286Z,1.02
2022-09-25T01:43:16.271Z,1.10
2022-09-25T01:45:51.771Z,1.70
2022-09-25T01:48:23.068Z,1.78
2022-09-25T01:50:56.153Z,1.64
2022-09-25T01:53:29.287Z,1.77
2022-09-25T01:56:01.520Z,1.66
2022-09-25T01:58:33.987Z,1.68
2022-09-25T02:01:08.347Z,1.49
2022-09-25T02:03:39.798Z,1.53
2022-09-25T02:06:08.020Z,1.45
2022-09-25T02:08:38.864Z,1.37
2022-09-25T02:11:07.142Z,1.72
2022-09-25T02:13:40.689Z,1.70
2022-09-25T02:16:12.926Z,1.57
2022-09-25T02:18:40.151Z,1.69
2022-09-25T02:21:14.049Z,1.64
2022-09-25T02:23:49.171Z,1.66
2022-09-25T02:26:23.714Z,1.51
2022-09-25T02:28:50.514Z,1.39
2022-09-25T02:31:20.411Z,1.43
2022-09-25T02:33:47.528Z,1.45
2022-09-25T02:36:18.557Z,1.34
2022-09-25T02:38:47.267Z,1.19
2022-09-25T02:41:23.300Z,1.30
2022-09-25T02:44:03.180Z,1.34
2022-09-25T02:46:42.362Z,1.48
2022-09-25T02:49:22.124Z,1.31
2022-09-25T02:51:55.114Z,1.31
2022-09-25T02:54:30.138Z,1.06
2022-09-25T02:57:04.520Z,0.95
2022-09-25T02:59:36.352Z,1.09
2022-09-25T03:02:06.167Z,0.93
2022-09-25T03:04:36.035Z,1.00
2022-09-25T03:07:03.263Z,0.82
2022-09-25T03:09:34.541Z,0.76
2022-09-25T03:12:01.935Z,0.74
2022-09-25T03:14:29.755Z,0.72
2022-09-25T03:17:00.121Z,0.86
2022-09-25T03:19:29.743Z,1.00
2022-09-25T03:21:57.006Z,1.36
2022-09-25T03:24:25.348Z,1.00
2022-09-25T03:26:53.419Z,0.89
2022-09-25T03:29:22.768Z,0.92
2022-09-25T03:31:50.166Z,0.90
2022-09-25T03:34:19.626Z,1.05
2022-09-25T03:36:47.848Z,1.05
2022-09-25T03:39:18.162Z,1.01
2022-09-25T03:41:45.498Z,1.32
2022-09-25T03:44:13.737Z,1.36
2022-09-25T03:46:40.520Z,1.32
2022-09-25T03:49:12.655Z,1.46
2022-09-25T03:51:39.671Z,1.24
2022-09-25T03:54:08.518Z,1.29
2022-09-25T03:56:35.326Z,1.28
2022-09-25T03:59:03.420Z,1.15
2022-09-25T04:01:30.495Z,1.34
2022-09-25T04:03:57.982Z,1.43
2022-09-25T04:06:26.088Z,1.46
2022-09-25T04:08:54.453Z,1.80
2022-09-25T04:11:24.023Z,1.66
2022-09-25T04:13:52.872Z,1.83
2022-09-25T04:16:21.466Z,1.81
2022-09-25T04:18:48.879Z,1.89
2022-09-25T04:21:15.927Z,1.92
2022-09-25T04:23:46.038Z,2.66
2022-09-25T04:26:12.811Z,2.48
2022-09-25T04:28:41.271Z,2.37
2022-09-25T04:31:08.033Z,2.46
2022-09-25T04:33:39.304Z,2.28
2022-09-25T04:36:06.714Z,2.61
2022-09-25T04:38:33.842Z,2.46
2022-09-25T04:41:01.302Z,2.54
2022-09-25T04:43:29.186Z,2.51
2022-09-25T04:46:01.090Z,2.62
2022-09-25T04:48:30.960Z,2.37
2022-09-25T04:50:57.875Z,2.12
2022-09-25T04:53:30.494Z,2.16
2022-09-25T04:56:01.470Z,2.29
2022-09-25T04:58:28.662Z,2.50
2022-09-25T05:01:00.763Z,2.69
2022-09-25T05:03:28.057Z,2.96
2022-09-25T05:05:54.824Z,3.24
2022-09-25T05:08:22.768Z,3.06
2022-09-25T05:10:49.633Z,3.34
2022-09-25T05:13:16.888Z,3.46
2022-09-25T05:15:45.011Z,3.50
2022-09-25T05:18:16.422Z,3.29
2022-09-25T05:20:43.326Z,3.37
2022-09-25T05:23:11.944Z,3.37
2022-09-25T05:25:41.606Z,3.35
2022-09-25T05:28:09.894Z,4.03
2022-09-25T05:30:37.344Z,4.62
2022-09-25T05:33:04.266Z,5.12
2022-09-25T05:35:33.404Z,4.36
2022-09-25T05:38:00.253Z,4.09
2022-09-25T05:40:27.757Z,4.29
2022-09-25T05:42:57.647Z,4.90
2022-09-25T05:45:26.226Z,4.29
2022-09-25T05:48:03.160Z,4.17
2022-09-25T05:50:31.953Z,3.83
2022-09-25T05:53:02.682Z,3.83
2022-09-25T05:55:31.456Z,3.95
2022-09-25T05:58:02.736Z,4.13
2022-09-25T06:00:29.869Z,4.40
2022-09-25T06:02:56.838Z,4.22
2022-09-25T06:05:27.851Z,4.19
2022-09-25T06:07:55.429Z,3.78
2022-09-25T06:10:24.588Z,4.18
2022-09-25T06:12:51.360Z,4.22
2022-09-25T06:15:18.320Z,4.29
2022-09-25T06:17:45.302Z,4.36
2022-09-25T06:20:15.931Z,4.10
2022-09-25T06:22:44.395Z,4.07
2022-09-25T06:25:11.479Z,4.22
2022-09-25T06:27:39.652Z,4.16
2022-09-25T06:30:07.522Z,4.29
2022-09-25T06:32:34.286Z,4.11
2022-09-25T06:35:02.224Z,4.16
2022-09-25T06:37:28.966Z,3.96
2022-09-25T06:39:56.940Z,3.25
2022-09-25T06:42:23.674Z,3.11
2022-09-25T06:44:52.691Z,2.82
2022-09-25T06:47:22.492Z,2.86
2022-09-25T06:49:52.074Z,3.25
2022-09-25T06:52:19.547Z,3.18
2022-09-25T06:54:46.725Z,3.16
2022-09-25T06:57:15.824Z,3.68
2022-09-25T06:59:43.718Z,3.72
2022-09-25T07:02:13.009Z,3.77
2022-09-25T07:04:40.110Z,3.85
2022-09-25T07:07:07.029Z,3.69
2022-09-25T07:09:34.034Z,3.55
2022-09-25T07:12:02.779Z,3.83
2022-09-25T07:14:29.854Z,3.58
2022-09-25T07:17:01.827Z,3.64
2022-09-25T07:19:30.394Z,3.33
2022-09-25T07:21:59.128Z,3.17
2022-09-25T07:24:27.715Z,3.32
2022-09-25T07:26:56.003Z,3.06
2022-09-25T07:29:23.390Z,3.02
2022-09-25T07:31:52.679Z,2.76
2022-09-25T07:34:25.753Z,2.40
2022-09-25T07:36:55.058Z,1.99
2022-09-25T07:39:22.299Z,1.89
2022-09-25T07:41:49.070Z,1.75
2022-09-25T07:44:37.611Z,1.66
2022-09-25T07:47:03.738Z,1.68
2022-09-25T07:49:33.034Z,1.93
2022-09-25T07:52:01.578Z,1.95
2022-09-25T07:54:28.766Z,2.24
2022-09-25T07:56:55.568Z,2.72
2022-09-25T07:59:23.740Z,2.63
2022-09-25T08:01:53.906Z,2.88
2022-09-25T08:04:25.983Z,2.84
2022-09-25T08:06:53.172Z,3.56
2022-09-25T08:09:22.489Z,4.55
2022-09-25T08:11:49.439Z,4.83
2022-09-25T08:14:17.313Z,5.73
2022-09-25T08:16:45.553Z,6.13
2022-09-25T08:19:12.571Z,7.10
2022-09-25T08:21:39.840Z,8.48
2022-09-25T08:24:08.219Z,8.14
2022-09-25T08:26:37.343Z,7.25
2022-09-25T08:29:04.656Z,6.41
2022-09-25T08:31:31.500Z,5.41
2022-09-25T08:34:14.951Z,4.38
2022-09-25T08:36:49.199Z,3.52
2022-09-25T08:39:18.938Z,3.14
2022-09-25T08:41:50.231Z,2.93
2022-09-25T08:44:29.138Z,3.11
2022-09-25T08:47:00.216Z,3.46
2022-09-25T08:49:32.608Z,3.25
2022-09-25T08:52:02.811Z,2.94
2022-09-25T08:54:35.530Z,2.74
2022-09-25T08:57:12.525Z,3.10
2022-09-25T08:59:43.733Z,3.24
2022-09-25T09:02:14.714Z,3.12
2022-09-25T09:04:49.092Z,3.08
2022-09-25T09:07:28.064Z,3.20
2022-09-25T09:10:02.546Z,3.86
2022-09-25T09:12:39.355Z,4.11
2022-09-25T09:15:21.243Z,4.33
2022-09-25T09:17:55.176Z,4.28
2022-09-25T09:20:31.958Z,4.47
2022-09-25T09:22:59.626Z,4.76
2022-09-25T09:25:35.215Z,4.53
2022-09-25T09:28:29.232Z,4.82
2022-09-25T09:31:03.593Z,4.91
2022-09-25T09:36:24.681Z,4.92
2022-09-25T09:39:03.712Z,4.48
2022-09-25T09:41:54.571Z,4.18
2022-09-25T09:44:53.028Z,3.83
2022-09-25T09:47:39.371Z,3.45
2022-09-25T09:50:26.743Z,3.57
2022-09-25T09:53:02.120Z,3.69
2022-09-25T09:55:37.405Z,3.36
2022-09-25T09:58:14.059Z,3.34
2022-09-25T10:00:42.960Z,3.41
2022-09-25T10:03:14.956Z,3.92
2022-09-25T10:05:45.263Z,4.37
2022-09-25T10:08:14.933Z,3.84
2022-09-25T10:10:43.642Z,3.52
2022-09-25T10:13:23.206Z,3.21
2022-09-25T10:15:55.397Z,2.57
2022-09-25T10:18:28.312Z,2.38
2022-09-25T10:21:01.712Z,2.19
2022-09-25T10:23:43.877Z,2.09
2022-09-25T10:26:27.388Z,1.88
2022-09-25T10:28:57.539Z,2.22
2022-09-25T10:31:29.118Z,2.13
2022-09-25T10:34:01.753Z,2.21
2022-09-25T10:36:37.632Z,2.13
2022-09-25T10:39:43.409Z,2.10
2022-09-25T10:42:34.445Z,1.95
2022-09-25T10:45:16.050Z,1.78
2022-09-25T10:47:50.081Z,1.91
2022-09-25T10:50:21.105Z,2.13
2022-09-25T10:52:51.115Z,2.25
2022-09-25T10:55:27.226Z,2.11
2022-09-25T10:58:06.385Z,2.11
2022-09-25T11:00:40.535Z,2.14
2022-09-25T11:03:18.491Z,2.23
2022-09-25T11:05:52.436Z,2.49
2022-09-25T11:08:22.318Z,3.03
2022-09-25T11:10:53.448Z,3.24
2022-09-25T11:13:26.577Z,3.37
2022-09-25T11:15:58.651Z,3.19
2022-09-25T11:18:38.708Z,3.22
2022-09-25T11:21:16.810Z,2.74
2022-09-25T11:23:57.352Z,2.65
2022-09-25T11:26:30.903Z,2.56
2022-09-25T11:29:08.482Z,2.30
2022-09-25T11:31:39.310Z,2.41
2022-09-25T11:34:18.414Z,2.48
2022-09-25T11:36:50.568Z,2.43
2022-09-25T11:39:29.539Z,2.42
2022-09-25T11:42:03.087Z,1.92
2022-09-25T11:44:37.421Z,1.63
2022-09-25T11:47:12.604Z,1.60
2022-09-25T11:49:41.943Z,1.62
2022-09-25T11:52:35.468Z,1.54
2022-09-25T11:55:32.832Z,1.26
2022-09-25T11:58:11.895Z,1.13
2022-09-25T12:00:47.062Z,1.35
2022-09-25T12:06:10.769Z,1.57
2022-09-25T12:08:55.508Z,1.55
2022-09-25T12:11:35.299Z,1.54
2022-09-25T12:14:13.119Z,1.31
2022-09-25T12:16:48.432Z,1.52
2022-09-25T12:19:26.899Z,1.29
2022-09-25T12:22:04.581Z,1.06
2022-09-25T12:24:46.147Z,0.85
2022-09-25T12:27:23.193Z,1.00
2022-09-25T12:30:02.655Z,0.93
2022-09-25T12:32:42.340Z,0.89
2022-09-25T12:35:19.923Z,0.91
2022-09-25T12:37:51.992Z,0.81
2022-09-25T12:40:26.225Z,0.75
2022-09-25T12:42:57.727Z,0.68
2022-09-25T12:45:33.503Z,0.64
2022-09-25T12:48:16.765Z,0.62
2022-09-25T12:50:52.991Z,0.59
2022-09-25T12:53:30.829Z,0.52
2022-09-25T12:56:11.247Z,0.75
2022-09-25T12:58:46.671Z,0.63
2022-09-25T13:01:21.152Z,0.50
2022-09-25T13:03:59.953Z,0.62
2022-09-25T13:06:36.906Z,0.58
2022-09-25T13:09:17.710Z,0.45
2022-09-25T13:11:49.222Z,0.33
2022-09-25T13:14:26.793Z,0.27
2022-09-25T13:16:54.680Z,0.43
2022-09-25T13:19:26.878Z,0.42
2022-09-25T13:22:01.836Z,0.50
2022-09-25T13:24:31.366Z,0.52
2022-09-25T13:27:04.993Z,0.67
2022-09-25T13:29:35.081Z,0.54
2022-09-25T13:32:08.261Z,0.51
2022-09-25T13:34:38.634Z,0.49
2022-09-25T13:37:07.999Z,0.78
2022-09-25T13:39:40.068Z,1.00
2022-09-25T13:42:16.124Z,0.85
2022-09-25T13:44:59.414Z,0.67
2022-09-25T13:47:48.714Z,0.50
2022-09-25T13:50:23.458Z,0.41
2022-09-25T13:53:01.351Z,0.36
2022-09-25T13:55:29.740Z,0.38
2022-09-25T13:58:04.235Z,0.36
2022-09-25T14:00:54.570Z,0.33
2022-09-25T14:03:40.236Z,0.50
2022-09-25T14:06:11.424Z,0.73
2022-09-25T14:08:41.619Z,0.82
2022-09-25T14:11:15.837Z,0.95
2022-09-25T14:16:19.834Z,0.80
2022-09-25T14:18:51.315Z,0.75
2022-09-25T14:21:22.511Z,0.64
2022-09-25T14:23:51.400Z,0.84
2022-09-25T14:26:22.343Z,0.93
2022-09-25T14:28:50.798Z,0.86
2022-09-25T14:31:45.578Z,0.82
2022-09-25T14:37:17.563Z,0.75
2022-09-25T14:39:50.980Z,0.62
2022-09-25T14:42:42.802Z,0.64
2022-09-25T14:45:59.264Z,0.73
2022-09-25T14:51:06.560Z,0.76
2022-09-25T14:53:37.281Z,0.68
2022-09-25T14:56:06.308Z,0.59
2022-09-25T14:58:35.666Z,0.64
2022-09-25T15:01:13.594Z,0.53
2022-09-25T15:03:44.626Z,0.55
2022-09-25T15:06:16.140Z,0.53
2022-09-25T15:08:43.391Z,0.57
2022-09-25T15:11:12.729Z,0.59
2022-09-25T15:13:41.317Z,1.07
2022-09-25T15:16:15.667Z,0.94
2022-09-25T15:18:45.867Z,1.09
2022-09-25T15:21:26.224Z,1.00
2022-09-25T15:24:01.015Z,0.95
2022-09-25T15:26:40.223Z,0.98
2022-09-25T15:29:15.739Z,0.91
2022-09-25T15:31:44.111Z,0.91
2022-09-25T15:34:13.922Z,0.91
2022-09-25T15:36:48.294Z,0.98
2022-09-25T15:39:17.926Z,1.02
2022-09-25T15:41:46.042Z,1.00
2022-09-25T15:44:19.336Z,0.95
2022-09-25T15:46:49.839Z,1.08
2022-09-25T15:49:20.920Z,1.15
2022-09-25T15:51:53.036Z,1.14
2022-09-25T15:54:35.719Z,1.20
2022-09-25T15:57:06.292Z,1.14
2022-09-25T15:59:40.083Z,1.43
2022-09-25T16:02:17.082Z,1.28
2022-09-25T16:04:49.408Z,1.45
2022-09-25T16:07:26.428Z,1.30
2022-09-25T16:09:55.926Z,1.50
2022-09-25T16:12:28.740Z,1.64
2022-09-25T16:14:58.564Z,1.73
2022-09-25T16:17:33.121Z,1.54
2022-09-25T16:20:05.095Z,1.77
2022-09-25T16:22:39.323Z,1.78
2022-09-25T16:25:16.399Z,1.69
2022-09-25T16:27:47.254Z,1.72
2022-09-25T16:30:21.086Z,1.52
2022-09-25T16:32:51.274Z,1.42
2022-09-25T16:35:24.531Z,1.79
2022-09-25T16:37:55.400Z,1.69
2022-09-25T16:40:28.530Z,1.81
2022-09-25T16:43:01.701Z,1.63
2022-09-25T16:45:32.720Z,1.42
2022-09-25T16:48:01.345Z,1.63
2022-09-25T16:50:34.360Z,1.77
2022-09-25T16:53:01.136Z,1.93
2022-09-25T16:55:28.245Z,2.17
2022-09-25T16:57:57.326Z,2.53
2022-09-25T17:00:27.018Z,2.62
2022-09-25T17:02:56.544Z,3.17
2022-09-25T17:05:28.581Z,3.30
2022-09-25T17:07:57.697Z,3.30
2022-09-25T17:10:30.863Z,3.33
2022-09-25T17:13:00.804Z,2.96
2022-09-25T17:15:39.237Z,2.93
2022-09-25T17:18:16.398Z,3.41
2022-09-25T17:20:44.759Z,3.38
2022-09-25T17:23:11.757Z,3.46
2022-09-25T17:25:44.146Z,3.37
2022-09-25T17:28:12.098Z,2.80
2022-09-25T17:30:39.870Z,2.84
2022-09-25T17:33:14.353Z,3.10
2022-09-25T17:35:46.247Z,2.91
2022-09-25T17:38:13.063Z,2.59
2022-09-25T17:40:42.817Z,2.43
2022-09-25T17:43:10.333Z,2.64
2022-09-25T17:45:47.053Z,2.14
2022-09-25T17:48:15.689Z,2.49
2022-09-25T17:50:44.891Z,2.31
2022-09-25T17:53:17.296Z,2.53
2022-09-25T17:55:48.769Z,2.37
2022-09-25T17:58:18.750Z,2.64
2022-09-25T18:00:45.595Z,2.55
2022-09-25T18:03:12.773Z,2.15
2022-09-25T18:05:42.583Z,2.19
2022-09-25T18:08:11.643Z,2.34
2022-09-25T18:10:41.642Z,2.30
2022-09-25T18:13:13.620Z,2.05
2022-09-25T18:15:47.115Z,1.77
2022-09-25T18:18:15.180Z,2.68
2022-09-25T18:20:43.632Z,3.20
2022-09-25T18:23:10.703Z,3.29
2022-09-25T18:25:41.139Z,3.45
2022-09-25T18:28:08.588Z,3.29
2022-09-25T18:30:35.845Z,2.71
2022-09-25T18:33:02.705Z,2.50
2022-09-25T18:35:29.783Z,2.02
2022-09-25T18:37:59.539Z,1.77
2022-09-25T18:40:27.034Z,1.51
2022-09-25T18:42:54.057Z,1.32
2022-09-25T18:45:21.308Z,1.06
2022-09-25T18:47:48.160Z,0.94
2022-09-25T18:50:19.598Z,0.71
2022-09-25T18:52:47.237Z,0.88
2022-09-25T18:55:16.628Z,0.86
2022-09-25T18:57:43.387Z,0.76
2022-09-25T19:00:11.544Z,0.87
2022-09-25T19:02:38.497Z,0.98
2022-09-25T19:05:08.585Z,1.27
2022-09-25T19:07:36.280Z,1.24
2022-09-25T19:10:03.717Z,2.18
2022-09-25T19:12:31.875Z,2.00
2022-09-25T19:14:59.126Z,1.84
2022-09-25T19:17:25.897Z,1.22
2022-09-25T19:19:54.382Z,0.84
2022-09-25T19:22:21.209Z,0.59
2022-09-25T19:24:48.519Z,0.40
2022-09-25T19:27:16.751Z,0.31
2022-09-25T19:29:46.773Z,0.26
2022-09-25T19:32:16.365Z,0.31
2022-09-25T19:34:43.152Z,0.21
2022-09-25T19:37:14.134Z,0.16
2022-09-25T19:39:41.406Z,0.14
2022-09-25T19:42:09.348Z,0.12
2022-09-25T19:44:36.163Z,0.16
2022-09-25T19:47:05.112Z,0.21
2022-09-25T19:49:34.109Z,0.26
2022-09-25T19:52:01.615Z,0.25
2022-09-25T19:54:28.652Z,3.83
2022-09-25T19:56:55.514Z,2.13
2022-09-25T19:59:22.495Z,1.20
2022-09-25T20:01:50.429Z,0.69
2022-09-25T20:04:19.325Z,0.41
2022-09-25T20:06:46.749Z,0.22
2022-09-25T20:09:14.907Z,0.12
2022-09-25T20:11:41.868Z,0.11
2022-09-25T20:14:08.930Z,0.06
2022-09-25T20:16:35.788Z,0.03
2022-09-25T20:19:04.690Z,0.06
2022-09-25T20:21:36.705Z,0.03
2022-09-25T20:24:06.997Z,0.02
2022-09-25T20:26:34.419Z,0.01
2022-09-25T20:29:03.502Z,0.05
2022-09-25T20:31:31.878Z,0.03
2022-09-25T20:33:59.013Z,0.37
2022-09-25T20:36:28.208Z,0.20
2022-09-25T20:38:56.882Z,0.15
2022-09-25T20:41:26.062Z,0.08
2022-09-25T20:43:55.709Z,0.06
2022-09-25T20:46:23.615Z,0.03
2022-09-25T20:48:51.950Z,0.05
2022-09-25T20:51:20.860Z,0.03
2022-09-25T20:53:50.948Z,0.06
2022-09-25T20:56:22.481Z,0.07
2022-09-25T20:58:53.450Z,0.13
2022-09-25T21:01:22.748Z,0.86
2022-09-25T21:03:51.230Z,0.50
2022-09-25T21:06:20.182Z,0.29
2022-09-25T21:08:51.564Z,0.15
2022-09-25T21:11:19.891Z,0.08
2022-09-25T21:13:51.398Z,0.04
2022-09-25T21:16:19.549Z,0.02
2022-09-25T21:18:51.843Z,0.04
2022-09-25T21:21:19.012Z,0.02
2022-09-25T21:23:49.519Z,0.02
2022-09-25T21:26:17.790Z,0.01
2022-09-25T21:28:50.243Z,0.01
2022-09-25T21:31:19.208Z,0.00
2022-09-25T21:33:47.424Z,0.00
2022-09-25T21:36:16.659Z,0.00
2022-09-25T21:38:43.856Z,0.00
2022-09-25T21:41:12.968Z,0.21
2022-09-25T21:43:40.112Z,0.11
2022-09-25T21:46:13.132Z,0.06
2022-09-25T21:48:42.046Z,0.03
2022-09-25T21:51:10.007Z,0.02
2022-09-25T21:53:36.786Z,0.10
2022-09-25T21:56:05.908Z,0.05
2022-09-25T21:58:33.598Z,0.38
2022-09-25T22:01:06.334Z,0.20
2022-09-25T22:03:35.830Z,0.11
2022-09-25T22:06:04.717Z,0.06
2022-09-25T22:08:31.737Z,0.03
2022-09-25T22:11:00.036Z,0.02
2022-09-25T22:13:28.747Z,0.01
2022-09-25T22:16:00.364Z,0.00
2022-09-25T22:18:27.461Z,0.00
2022-09-25T22:20:56.031Z,0.00
2022-09-25T22:23:23.355Z,0.00
2022-09-25T22:25:50.296Z,0.00
2022-09-25T22:28:17.372Z,0.00
2022-09-25T22:30:44.396Z,0.00
2022-09-25T22:33:11.409Z,0.00
2022-09-25T22:35:38.268Z,0.00
2022-09-25T22:38:06.384Z,0.00
2022-09-25T22:40:36.648Z,0.00
2022-09-25T22:43:03.750Z,0.00
2022-09-25T22:45:30.952Z,0.00
2022-09-25T22:47:58.319Z,0.00
2022-09-25T22:50:26.376Z,0.05
2022-09-25T22:52:58.100Z,0.02
2022-09-25T22:55:27.745Z,0.01
2022-09-25T22:57:54.744Z,0.01
2022-09-25T23:00:22.864Z,0.00
2022-09-25T23:02:49.610Z,0.01
2022-09-25T23:05:16.705Z,0.01
2022-09-25T23:07:43.658Z,0.05
2022-09-25T23:10:10.387Z,0.03
2022-09-25T23:12:38.696Z,0.01
2022-09-25T23:15:06.276Z,0.01
2022-09-25T23:17:33.199Z,0.00
2022-09-25T23:20:00.358Z,0.00
2022-09-25T23:22:27.183Z,0.00
2022-09-25T23:24:54.231Z,0.00
2022-09-25T23:27:23.146Z,0.00
2022-09-25T23:29:51.239Z,0.00
2022-09-25T23:32:20.797Z,0.00
2022-09-25T23:34:47.515Z,0.02
2022-09-25T23:37:14.486Z,0.01
2022-09-25T23:39:41.211Z,0.01
2022-09-25T23:42:08.073Z,0.00
2022-09-25T23:44:34.944Z,0.00
2022-09-25T23:47:04.406Z,0.00
2022-09-25T23:49:31.166Z,0.00
2022-09-25T23:51:59.116Z,0.00
2022-09-25T23:54:26.112Z,0.00
2022-09-25T23:56:53.098Z,0.00
2022-09-25T23:59:19.855Z,0.00
